Time;durP1;ratioP1;P1;durP2;ratioP2;P2;SDS_P1;SDS_P2;PMS_P1;PMS_P2;Temp;Humidity;BMP_temperature;BMP_pressure;BME280_temperature;BME280_humidity;BME280_pressure;Samples;Min_cycle;Max_cycle;Signal;HPM_P1;HPM_P2
2022/07/22 00:00:14;;;;;;;6.93;5.40;;;23.20;86.30;;;;;;5067262;28;20226;-71
2022/07/22 00:02:40;;;;;;;6.20;5.70;;;23.20;86.40;;;;;;5051584;28;20215;-70
2022/07/22 00:05:07;;;;;;;6.47;5.77;;;23.10;85.80;;;;;;5031931;28;20483;-70
2022/07/22 00:07:32;;;;;;;6.00;5.40;;;23.00;86.30;;;;;;5059846;28;20215;-71
2022/07/22 00:09:58;;;;;;;6.80;6.13;;;22.80;87.20;;;;;;5031219;28;20459;-71
2022/07/22 00:12:24;;;;;;;6.80;6.10;;;22.80;87.40;;;;;;5043211;28;20225;-71
2022/07/22 00:14:50;;;;;;;6.27;5.70;;;22.80;87.00;;;;;;5051891;28;20246;-71
2022/07/22 00:17:16;;;;;;;7.57;5.57;;;22.80;86.80;;;;;;5032160;28;20223;-70
2022/07/22 00:19:42;;;;;;;6.30;5.70;;;22.80;86.70;;;;;;5051061;28;20276;-71
2022/07/22 00:22:07;;;;;;;8.23;6.10;;;22.90;86.50;;;;;;5030347;28;20275;-70
2022/07/22 00:24:33;;;;;;;6.53;5.60;;;22.90;86.00;;;;;;5052063;28;20529;-70
2022/07/22 00:26:59;;;;;;;5.50;5.00;;;22.90;86.20;;;;;;5067540;28;20253;-71
2022/07/22 00:29:25;;;;;;;6.50;5.80;;;22.90;86.10;;;;;;5049335;28;20311;-70
2022/07/22 00:31:50;;;;;;;6.60;5.83;;;22.90;86.10;;;;;;5078404;28;20210;-69
2022/07/22 00:34:17;;;;;;;6.50;5.90;;;22.90;85.90;;;;;;5044017;28;20234;-70
2022/07/22 00:36:45;;;;;;;5.83;5.30;;;22.90;85.70;;;;;;5047414;28;20977;-70
2022/07/22 00:39:11;;;;;;;7.30;6.60;;;22.90;85.50;;;;;;5049111;28;20681;-70
2022/07/22 00:41:37;;;;;;;8.00;5.80;;;22.90;85.40;;;;;;5031283;28;20468;-70
2022/07/22 00:44:07;;;;;;;6.37;5.77;;;22.80;85.20;;;;;;5029509;28;20298;-70
2022/07/22 00:46:34;;;;;;;7.17;5.63;;;22.60;85.70;;;;;;5065830;28;20211;-71
2022/07/22 00:49:00;;;;;;;6.80;6.10;;;22.70;86.30;;;;;;5047867;28;20460;-71
2022/07/22 00:51:28;;;;;;;9.63;5.93;;;22.50;86.20;;;;;;5031721;28;20905;-71
2022/07/22 00:53:56;;;;;;;7.03;5.60;;;22.60;86.00;;;;;;5075726;28;20445;-70
2022/07/22 00:56:23;;;;;;;6.00;5.40;;;22.50;86.40;;;;;;5026398;28;20459;-71
2022/07/22 00:58:53;;;;;;;5.93;5.37;;;22.40;86.30;;;;;;5029944;28;20464;-71
2022/07/22 01:01:19;;;;;;;6.70;6.00;;;22.40;86.80;;;;;;5045274;28;20461;-70
2022/07/22 01:03:45;;;;;;;7.00;6.00;;;22.30;86.70;;;;;;5061012;28;20458;-70
2022/07/22 01:06:11;;;;;;;8.83;6.03;;;22.40;86.80;;;;;;5068566;28;20214;-70
2022/07/22 01:08:38;;;;;;;8.13;5.60;;;22.40;87.20;;;;;;5069863;28;20487;-70
2022/07/22 01:11:22;;;;;;;10.73;6.00;;;22.20;86.90;;;;;;5050948;28;20215;-70
2022/07/22 01:13:48;;;;;;;6.80;6.10;;;22.20;87.40;;;;;;5044289;28;20453;-71
2022/07/22 01:16:17;;;;;;;7.10;6.43;;;22.20;87.80;;;;;;5050515;28;20441;-71
2022/07/22 01:18:44;;;;;;;7.13;6.20;;;22.10;87.70;;;;;;5046365;28;20480;-71
2022/07/22 01:21:11;;;;;;;8.23;6.10;;;22.10;87.70;;;;;;5042915;28;20457;-71
2022/07/22 01:23:38;;;;;;;6.17;5.53;;;22.10;87.90;;;;;;5053003;28;20441;-71
2022/07/22 01:26:04;;;;;;;7.27;5.60;;;22.10;87.70;;;;;;5041921;28;20457;-70
2022/07/22 01:28:31;;;;;;;7.33;6.37;;;22.10;88.30;;;;;;5034072;28;20525;-71
2022/07/22 01:30:56;;;;;;;6.40;5.80;;;22.00;88.00;;;;;;5029563;28;20461;-71
2022/07/22 01:33:23;;;;;;;7.17;6.23;;;22.00;88.60;;;;;;5036536;28;20484;-71
2022/07/22 01:35:50;;;;;;;6.57;5.93;;;21.90;88.80;;;;;;5030783;28;20212;-70
2022/07/22 01:38:16;;;;;;;6.60;5.87;;;21.80;89.20;;;;;;5047508;28;20438;-70
2022/07/22 01:40:43;;;;;;;7.60;5.60;;;21.70;89.20;;;;;;5030699;28;20446;-70
2022/07/22 01:43:09;;;;;;;6.90;5.93;;;21.70;89.50;;;;;;5057737;28;20215;-71
2022/07/22 01:45:36;;;;;;;6.73;6.00;;;21.80;89.00;;;;;;5046021;28;20937;-70
2022/07/22 01:48:03;;;;;;;8.27;5.90;;;21.70;89.60;;;;;;5033585;28;20556;-70
2022/07/22 01:50:29;;;;;;;6.20;5.60;;;21.70;89.70;;;;;;5051042;28;20851;-71
2022/07/22 01:52:55;;;;;;;7.73;5.80;;;21.70;89.50;;;;;;5026126;28;20442;-70
2022/07/22 01:55:21;;;;;;;6.23;5.67;;;21.60;90.10;;;;;;5037601;28;20625;-70
2022/07/22 01:57:47;;;;;;;7.33;6.60;;;21.70;89.40;;;;;;5042562;28;20481;-69
2022/07/22 02:00:18;;;;;;;7.20;6.03;;;21.80;89.30;;;;;;5050433;28;20241;-70
2022/07/22 02:02:44;;;;;;;5.90;5.30;;;21.80;89.10;;;;;;5031210;28;20456;-70
2022/07/22 02:05:10;;;;;;;6.13;5.53;;;21.90;89.10;;;;;;5051270;28;20453;-70
2022/07/22 02:07:36;;;;;;;6.50;5.80;;;21.80;88.70;;;;;;5045974;28;20245;-71
2022/07/22 02:10:04;;;;;;;8.23;6.57;;;21.80;88.60;;;;;;5052283;28;20461;-71
2022/07/22 02:12:32;;;;;;;6.30;5.43;;;21.80;88.20;;;;;;5034352;28;20479;-70
2022/07/22 02:14:58;;;;;;;7.73;6.17;;;21.90;87.90;;;;;;5026014;28;20442;-69
2022/07/22 02:17:24;;;;;;;6.90;5.60;;;21.90;88.20;;;;;;5052596;28;20219;-70
2022/07/22 02:19:50;;;;;;;6.77;6.07;;;21.80;88.30;;;;;;5029964;28;20753;-71
2022/07/22 02:22:15;;;;;;;6.10;5.43;;;21.80;87.40;;;;;;5025816;28;20446;-70
2022/07/22 02:24:41;;;;;;;6.60;6.00;;;21.80;87.50;;;;;;5040833;28;20227;-70
2022/07/22 02:27:07;;;;;;;5.83;5.33;;;21.80;87.00;;;;;;5037273;28;20310;-70
2022/07/22 02:29:36;;;;;;;6.87;6.17;;;21.60;88.00;;;;;;5029873;28;20224;-71
2022/07/22 02:32:02;;;;;;;6.67;5.97;;;21.60;87.80;;;;;;5036521;28;20450;-70
2022/07/22 02:34:28;;;;;;;6.33;5.73;;;21.60;88.00;;;;;;5050006;28;20219;-70
2022/07/22 02:36:54;;;;;;;6.10;5.53;;;21.50;89.00;;;;;;5053827;28;20830;-70
2022/07/22 02:39:20;;;;;;;11.23;5.80;;;21.50;88.40;;;;;;5034080;28;20271;-70
2022/07/22 02:41:46;;;;;;;6.07;5.50;;;21.50;88.30;;;;;;5032930;28;20215;-70
2022/07/22 02:44:11;;;;;;;7.20;6.00;;;21.50;88.00;;;;;;5033369;28;20310;-70
2022/07/22 02:46:37;;;;;;;6.97;5.90;;;21.50;88.60;;;;;;5053251;28;20349;-70
2022/07/22 02:49:21;;;;;;;10.07;6.47;;;21.40;88.80;;;;;;5033963;28;20711;-71
2022/07/22 02:51:46;;;;;;;6.67;5.97;;;21.40;89.20;;;;;;5037254;28;20454;-70
2022/07/22 02:54:12;;;;;;;8.13;6.10;;;21.40;88.90;;;;;;5030485;28;20227;-70
2022/07/22 02:56:38;;;;;;;6.13;5.53;;;21.40;89.40;;;;;;5053869;28;20554;-71
2022/07/22 02:59:04;;;;;;;5.80;5.30;;;21.40;89.20;;;;;;5036579;28;20453;-70
2022/07/22 03:01:30;;;;;;;5.97;5.00;;;21.40;88.80;;;;;;5052249;28;20925;-70
2022/07/22 03:03:59;;;;;;;7.47;5.93;;;21.40;89.60;;;;;;5027651;28;20215;-70
2022/07/22 03:06:26;;;;;;;6.37;4.83;;;21.40;90.00;;;;;;5063288;28;20452;-71
2022/07/22 03:08:58;;;;;;;5.73;5.23;;;21.30;90.10;;;;;;5036660;28;20461;-70
2022/07/22 03:11:24;;;;;;;6.47;5.30;;;21.30;90.00;;;;;;5051014;28;20524;-70
2022/07/22 03:13:50;;;;;;;5.50;5.00;;;21.30;90.20;;;;;;5032096;28;20569;-70
2022/07/22 03:16:16;;;;;;;5.80;5.27;;;21.30;90.30;;;;;;5048888;28;20727;-70
2022/07/22 03:18:42;;;;;;;5.93;5.33;;;21.30;90.10;;;;;;5053072;28;20242;-70
2022/07/22 03:21:07;;;;;;;7.37;5.90;;;21.20;90.60;;;;;;5053044;28;20231;-70
2022/07/22 03:23:33;;;;;;;6.33;5.47;;;21.20;90.60;;;;;;5035389;28;20215;-71
2022/07/22 03:25:59;;;;;;;5.93;5.33;;;21.20;90.20;;;;;;5036101;28;20219;-70
2022/07/22 03:28:27;;;;;;;6.33;5.73;;;21.20;90.00;;;;;;5051433;28;20219;-71
2022/07/22 03:30:53;;;;;;;10.40;5.27;;;21.20;90.30;;;;;;5065761;28;20298;-70
2022/07/22 03:33:19;;;;;;;6.90;6.30;;;21.20;90.70;;;;;;5033720;28;20442;-71
2022/07/22 03:35:46;;;;;;;5.90;5.30;;;21.10;90.90;;;;;;5025373;28;20546;-70
2022/07/22 03:38:13;;;;;;;6.63;6.00;;;21.00;91.20;;;;;;5039825;28;20521;-70
2022/07/22 03:40:38;;;;;;;6.90;6.10;;;21.00;91.20;;;;;;5042168;28;20462;-70
2022/07/22 03:43:04;;;;;;;6.27;5.67;;;21.10;90.60;;;;;;5044122;28;20223;-70
2022/07/22 03:45:31;;;;;;;6.60;6.00;;;21.10;90.60;;;;;;5022364;28;20298;-70
2022/07/22 03:48:00;;;;;;;5.70;5.27;;;21.20;90.60;;;;;;5060058;28;20601;-70
2022/07/22 03:50:29;;;;;;;6.10;5.50;;;21.20;90.60;;;;;;5043390;28;20702;-70
2022/07/22 03:52:54;;;;;;;7.70;5.53;;;21.20;90.80;;;;;;5051529;28;20519;-69
2022/07/22 03:55:20;;;;;;;9.10;5.77;;;21.20;90.70;;;;;;5021985;28;20219;-71
2022/07/22 03:57:49;;;;;;;7.20;6.00;;;21.20;90.80;;;;;;5046367;28;20219;-71
2022/07/22 04:00:23;;;;;;;6.70;5.80;;;21.20;91.00;;;;;;5036045;28;20503;-70
2022/07/22 04:02:49;;;;;;;8.00;6.27;;;21.10;91.30;;;;;;5052407;28;20453;-70
2022/07/22 04:05:24;;;;;;;6.57;5.50;;;21.10;91.30;;;;;;5036920;28;20219;-70
2022/07/22 04:07:50;;;;;;;8.07;6.43;;;21.00;92.00;;;;;;5045923;28;20481;-70
2022/07/22 04:10:16;;;;;;;6.97;6.27;;;20.90;92.00;;;;;;5042175;28;20702;-71
2022/07/22 04:12:43;;;;;;;8.20;6.13;;;20.80;92.30;;;;;;5058654;28;20269;-70
2022/07/22 04:15:14;;;;;;;6.20;5.60;;;20.90;91.90;;;;;;5054436;28;20461;-70
2022/07/22 04:17:40;;;;;;;6.90;6.20;;;20.90;92.10;;;;;;5059927;28;20450;-71
2022/07/22 04:20:06;;;;;;;8.03;6.83;;;20.90;92.10;;;;;;5034196;28;20325;-70
2022/07/22 04:22:44;;;;;;;7.17;6.30;;;20.90;91.90;;;;;;5036250;28;20264;-70
2022/07/22 04:25:09;;;;;;;6.67;5.97;;;21.00;91.90;;;;;;5034256;28;20459;-71
2022/07/22 04:27:36;;;;;;;8.00;6.27;;;21.00;92.00;;;;;;5050898;28;20246;-70
2022/07/22 04:30:02;;;;;;;7.77;5.93;;;21.00;91.90;;;;;;5034180;28;20238;-70
2022/07/22 04:32:28;;;;;;;7.90;5.83;;;20.90;92.00;;;;;;5048400;28;20503;-70
2022/07/22 04:34:54;;;;;;;7.70;5.70;;;20.90;92.50;;;;;;5050530;28;20450;-71
2022/07/22 04:37:20;;;;;;;6.27;5.67;;;20.90;92.30;;;;;;5049218;28;20222;-70
2022/07/22 04:39:45;;;;;;;7.10;6.40;;;20.80;92.30;;;;;;5048062;28;20218;-70
2022/07/22 04:42:11;;;;;;;8.83;5.70;;;20.80;92.20;;;;;;5054286;28;20651;-70
2022/07/22 04:44:38;;;;;;;6.00;5.40;;;20.90;92.20;;;;;;5051637;28;20252;-70
2022/07/22 04:47:04;;;;;;;11.27;6.77;;;20.90;92.00;;;;;;5034168;28;20459;-70
2022/07/22 04:49:29;;;;;;;6.37;5.73;;;20.90;92.30;;;;;;5049759;28;20238;-71
2022/07/22 04:51:57;;;;;;;7.13;6.27;;;20.80;92.40;;;;;;5022622;28;20660;-71
2022/07/22 04:54:35;;;;;;;7.23;5.30;;;20.80;92.60;;;;;;5029110;28;20480;-71
2022/07/22 04:57:01;;;;;;;6.63;5.93;;;20.80;92.80;;;;;;5030671;28;20541;-70
2022/07/22 04:59:27;;;;;;;7.20;5.80;;;20.80;92.90;;;;;;5050035;28;20521;-71
2022/07/22 05:01:53;;;;;;;7.33;5.97;;;20.80;92.80;;;;;;5050170;28;20948;-69
2022/07/22 05:04:19;;;;;;;5.83;5.33;;;20.80;92.80;;;;;;5047656;28;20302;-71
2022/07/22 05:06:45;;;;;;;5.90;5.40;;;20.70;93.00;;;;;;5058873;28;20445;-70
2022/07/22 05:09:11;;;;;;;6.87;5.97;;;20.70;93.00;;;;;;5032689;28;20557;-70
2022/07/22 05:11:36;;;;;;;8.00;6.50;;;20.70;93.10;;;;;;5051727;28;20567;-70
2022/07/22 05:14:02;;;;;;;7.70;6.07;;;20.80;93.10;;;;;;5050000;28;20211;-70
2022/07/22 05:16:29;;;;;;;8.07;6.50;;;20.70;93.20;;;;;;5048327;28;20442;-70
2022/07/22 05:18:55;;;;;;;6.83;5.93;;;20.70;93.20;;;;;;5040470;28;20515;-68
2022/07/22 05:21:21;;;;;;;6.83;6.07;;;20.70;93.30;;;;;;5035099;28;20227;-70
2022/07/22 05:23:46;;;;;;;7.07;6.10;;;20.70;93.20;;;;;;5047607;28;20224;-70
2022/07/22 05:26:14;;;;;;;6.03;5.43;;;20.80;93.30;;;;;;5047686;28;20289;-70
2022/07/22 05:28:40;;;;;;;6.33;5.60;;;20.80;93.30;;;;;;5010416;28;21084;-70
2022/07/22 05:31:06;;;;;;;5.53;4.90;;;20.80;93.40;;;;;;5019467;28;20229;-70
2022/07/22 05:33:33;;;;;;;8.30;6.20;;;20.80;93.00;;;;;;5046353;28;20542;-70
2022/07/22 05:36:19;;;;;;;6.53;5.80;;;20.90;93.10;;;;;;5060962;28;20481;-71
2022/07/22 05:38:47;;;;;;;6.03;5.30;;;20.90;93.10;;;;;;5041794;28;20454;-71
2022/07/22 05:41:12;;;;;;;7.47;6.10;;;21.00;93.00;;;;;;5021530;28;20466;-70
2022/07/22 05:43:38;;;;;;;5.90;5.37;;;20.90;93.30;;;;;;5043042;28;20211;-70
2022/07/22 05:46:07;;;;;;;5.30;4.80;;;21.00;93.40;;;;;;5043488;28;20219;-70
2022/07/22 05:48:33;;;;;;;5.37;4.87;;;21.00;93.30;;;;;;5042934;28;20883;-70
2022/07/22 05:50:59;;;;;;;6.47;5.70;;;21.10;93.30;;;;;;5059714;28;20962;-71
2022/07/22 05:53:25;;;;;;;5.40;4.90;;;21.20;93.40;;;;;;5036818;28;20445;-71
2022/07/22 05:55:50;;;;;;;6.37;5.50;;;21.10;93.10;;;;;;5043992;28;20967;-70
2022/07/22 05:58:16;;;;;;;6.60;5.80;;;21.10;93.20;;;;;;5028537;28;20216;-71
2022/07/22 06:00:42;;;;;;;6.07;5.47;;;21.10;93.40;;;;;;5053777;28;20294;-71
2022/07/22 06:03:08;;;;;;;6.50;5.90;;;21.10;93.20;;;;;;5040149;28;20215;-70
2022/07/22 06:05:35;;;;;;;7.67;6.27;;;21.20;93.50;;;;;;5029707;28;20319;-71
2022/07/22 06:08:02;;;;;;;6.50;5.70;;;21.20;93.10;;;;;;5048464;28;20208;-70
2022/07/22 06:10:36;;;;;;;5.50;5.00;;;21.20;93.10;;;;;;5031627;28;20555;-70
2022/07/22 06:13:01;;;;;;;5.50;5.00;;;21.20;93.10;;;;;;5044181;28;20552;-71
2022/07/22 06:15:27;;;;;;;7.20;6.07;;;21.30;93.00;;;;;;5034249;28;20286;-70
2022/07/22 06:17:53;;;;;;;7.77;5.40;;;21.30;93.00;;;;;;5044854;28;20228;-71
2022/07/22 06:20:19;;;;;;;6.43;5.83;;;21.40;93.00;;;;;;5051176;28;20219;-70
2022/07/22 06:22:44;;;;;;;6.00;5.40;;;21.40;92.80;;;;;;5034918;28;20223;-70
2022/07/22 06:25:10;;;;;;;6.10;5.30;;;21.40;92.70;;;;;;5031513;28;20227;-71
2022/07/22 06:27:36;;;;;;;6.50;5.90;;;21.50;92.70;;;;;;5047006;28;20560;-70
2022/07/22 06:30:03;;;;;;;6.10;5.50;;;21.50;93.00;;;;;;5025418;28;20231;-69
2022/07/22 06:32:29;;;;;;;5.67;5.10;;;21.50;92.60;;;;;;5052164;28;20505;-71
2022/07/22 06:34:55;;;;;;;5.50;5.00;;;21.60;92.70;;;;;;5026220;28;20545;-71
2022/07/22 06:37:21;;;;;;;5.17;4.67;;;21.60;92.50;;;;;;5034684;28;20241;-71
2022/07/22 06:39:47;;;;;;;6.93;5.50;;;21.60;92.50;;;;;;5032312;28;20348;-70
2022/07/22 06:42:19;;;;;;;6.90;5.63;;;21.70;92.60;;;;;;5041919;28;20253;-71
2022/07/22 06:45:05;;;;;;;7.63;5.47;;;21.70;92.50;;;;;;5050644;28;20456;-70
2022/07/22 06:47:49;;;;;;;5.23;4.73;;;21.70;92.50;;;;;;5060149;28;20459;-70
2022/07/22 06:50:17;;;;;;;6.10;5.40;;;21.80;92.50;;;;;;5044516;28;20457;-71
2022/07/22 06:52:43;;;;;;;6.80;5.90;;;21.70;92.60;;;;;;5049467;28;20984;-71
2022/07/22 06:55:11;;;;;;;8.20;5.30;;;21.80;92.60;;;;;;5062112;28;20235;-70
2022/07/22 06:57:44;;;;;;;6.13;5.53;;;21.80;92.60;;;;;;5034959;28;20471;-71
2022/07/22 07:00:10;;;;;;;7.90;5.90;;;21.90;92.80;;;;;;5046131;28;20453;-71
2022/07/22 07:02:59;;;;;;;7.43;6.27;;;22.00;92.90;;;;;;5047744;28;20224;-70
2022/07/22 07:05:27;;;;;;;6.20;5.17;;;22.10;92.50;;;;;;5064590;28;20454;-72
2022/07/22 07:07:53;;;;;;;6.67;5.93;;;22.10;92.40;;;;;;5039093;28;20445;-70
2022/07/22 07:10:19;;;;;;;6.20;5.60;;;22.20;92.40;;;;;;5034603;28;20525;-71
2022/07/22 07:12:59;;;;;;;7.73;5.53;;;22.20;92.50;;;;;;5037028;28;20226;-72
2022/07/22 07:15:38;;;;;;;6.30;5.70;;;22.20;92.60;;;;;;5043292;28;20453;-71
2022/07/22 07:18:07;;;;;;;5.67;4.83;;;22.40;92.30;;;;;;5026942;28;20837;-71
2022/07/22 07:20:33;;;;;;;6.40;5.80;;;22.40;92.10;;;;;;5035236;28;20523;-70
2022/07/22 07:23:02;;;;;;;11.27;6.07;;;22.50;92.10;;;;;;5038491;28;20964;-70
2022/07/22 07:25:30;;;;;;;6.83;6.13;;;22.50;92.00;;;;;;5030290;28;20690;-71
2022/07/22 07:27:55;;;;;;;5.53;4.93;;;22.50;91.90;;;;;;5043718;28;20489;-69
2022/07/22 07:30:48;;;;;;;6.80;6.10;;;22.70;92.00;;;;;;5045691;28;20218;-71
2022/07/22 07:33:14;;;;;;;5.53;4.90;;;22.80;91.80;;;;;;5038134;28;20479;-71
2022/07/22 07:35:39;;;;;;;6.13;5.60;;;22.90;91.60;;;;;;5030851;28;20454;-71
2022/07/22 07:38:06;;;;;;;6.83;5.87;;;23.00;91.70;;;;;;5038423;28;20223;-71
2022/07/22 07:40:32;;;;;;;8.63;6.80;;;23.10;91.50;;;;;;5030174;28;20520;-71
2022/07/22 07:42:58;;;;;;;6.13;5.53;;;23.10;91.40;;;;;;5046294;28;20471;-70
2022/07/22 07:45:24;;;;;;;7.70;5.40;;;23.20;91.40;;;;;;5035233;28;20461;-71
2022/07/22 07:47:50;;;;;;;6.60;6.07;;;23.20;91.20;;;;;;5052068;28;20222;-70
2022/07/22 07:50:16;;;;;;;6.43;5.80;;;23.30;91.20;;;;;;5037462;28;20275;-71
2022/07/22 07:52:44;;;;;;;7.00;6.30;;;23.40;91.10;;;;;;5049454;28;20214;-71
2022/07/22 07:55:11;;;;;;;7.17;6.47;;;23.30;90.80;;;;;;5020545;28;20337;-70
2022/07/22 07:57:38;;;;;;;7.90;6.17;;;23.40;91.10;;;;;;5047727;28;20460;-70
2022/07/22 08:00:11;;;;;;;7.50;6.80;;;23.50;91.30;;;;;;5040344;28;20453;-71
2022/07/22 08:02:39;;;;;;;7.70;6.50;;;23.60;91.10;;;;;;5055288;28;20446;-71
2022/07/22 08:05:08;;;;;;;8.10;6.53;;;23.70;91.00;;;;;;5043463;28;20982;-71
2022/07/22 08:07:34;;;;;;;7.60;6.60;;;23.80;90.70;;;;;;5033325;28;20460;-70
2022/07/22 08:10:00;;;;;;;6.60;5.90;;;23.90;90.50;;;;;;5028959;28;20470;-71
2022/07/22 08:12:50;;;;;;;7.90;7.10;;;24.00;90.50;;;;;;5060083;28;20275;-70
2022/07/22 08:15:29;;;;;;;7.67;6.73;;;24.10;90.20;;;;;;5028204;28;20455;-71
2022/07/22 08:17:56;;;;;;;7.80;7.10;;;24.20;90.00;;;;;;5046210;28;20472;-70
2022/07/22 08:20:23;;;;;;;8.67;6.53;;;24.20;89.70;;;;;;5029818;28;20467;-70
2022/07/22 08:22:50;;;;;;;7.33;6.47;;;24.20;89.60;;;;;;5037281;28;20447;-71
2022/07/22 08:25:16;;;;;;;7.30;6.60;;;24.30;89.70;;;;;;5019025;28;20795;-71
2022/07/22 08:27:42;;;;;;;8.70;7.40;;;24.40;89.30;;;;;;5035325;28;20471;-71
2022/07/22 08:30:09;;;;;;;9.97;7.50;;;24.40;88.80;;;;;;5033395;28;20468;-71
2022/07/22 08:32:35;;;;;;;7.70;6.90;;;24.50;88.40;;;;;;5043269;28;20218;-71
2022/07/22 08:35:01;;;;;;;7.60;6.90;;;24.50;89.40;;;;;;5031305;28;20458;-71
2022/07/22 08:37:26;;;;;;;8.63;6.80;;;24.50;87.20;;;;;;5043513;28;20229;-71
2022/07/22 08:39:53;;;;;;;8.83;7.90;;;24.50;87.90;;;;;;5020699;28;20482;-69
2022/07/22 08:42:22;;;;;;;8.67;6.90;;;24.60;87.60;;;;;;5040381;28;20687;-70
2022/07/22 08:44:49;;;;;;;7.87;7.07;;;24.60;87.20;;;;;;5058697;28;20470;-71
2022/07/22 08:47:15;;;;;;;7.33;6.50;;;24.60;87.20;;;;;;5047335;28;20486;-71
2022/07/22 08:50:17;;;;;;;10.10;7.60;;;24.70;86.80;;;;;;4963929;28;20458;-71
2022/07/22 08:52:58;;;;;;;8.27;7.00;;;24.80;87.10;;;;;;5019544;28;20962;-70
2022/07/22 08:55:25;;;;;;;7.60;6.80;;;24.90;87.00;;;;;;5032995;28;20450;-71
2022/07/22 08:57:51;;;;;;;7.80;7.00;;;25.00;86.60;;;;;;5034572;28;20712;-70
2022/07/22 09:00:21;;;;;;;6.60;6.00;;;25.20;86.50;;;;;;5048064;28;20442;-71
2022/07/22 09:02:49;;;;;;;6.97;6.10;;;25.20;86.20;;;;;;5049805;28;20244;-71
2022/07/22 09:05:16;;;;;;;7.70;6.90;;;25.30;86.20;;;;;;5039796;28;20458;-71
2022/07/22 09:07:45;;;;;;;7.27;6.47;;;25.50;85.70;;;;;;5032599;28;20969;-72
2022/07/22 09:10:31;;;;;;;7.47;6.77;;;25.50;85.60;;;;;;5048336;28;20492;-71
2022/07/22 09:13:16;;;;;;;7.70;5.83;;;25.60;85.70;;;;;;5064925;28;20465;-71
2022/07/22 09:15:54;;;;;;;7.10;6.40;;;25.80;85.40;;;;;;5052618;28;20462;-71
2022/07/22 09:18:54;;;;;;;7.30;6.60;;;25.80;85.30;;;;;;5063848;28;20827;-70
2022/07/22 09:21:42;;;;;;;6.47;5.80;;;26.00;85.00;;;;;;5048767;28;20457;-71
2022/07/22 09:24:36;;;;;;;6.40;5.80;;;26.00;85.00;;;;;;5060661;28;20973;-71
2022/07/22 09:27:28;;;;;;;6.50;5.93;;;26.10;85.50;;;;;;5052115;28;20452;-70
2022/07/22 09:30:18;;;;;;;5.93;5.33;;;26.50;84.10;;;;;;5051367;28;20478;-71
2022/07/22 09:32:56;;;;;;;8.43;6.53;;;26.60;83.80;;;;;;5031643;28;20862;-71
2022/07/22 09:35:42;;;;;;;6.43;5.80;;;26.70;83.10;;;;;;5050629;28;20458;-71
2022/07/22 09:38:10;;;;;;;6.10;5.60;;;26.80;82.50;;;;;;5047998;28;20810;-71
2022/07/22 09:40:42;;;;;;;9.90;6.17;;;26.80;81.60;;;;;;5030069;28;20458;-71
2022/07/22 09:43:11;;;;;;;6.23;5.63;;;26.70;81.90;;;;;;5066873;28;20471;-71
2022/07/22 09:45:49;;;;;;;6.63;6.00;;;26.80;82.10;;;;;;5034168;28;20488;-69
2022/07/22 09:48:17;;;;;;;6.03;5.53;;;26.80;81.80;;;;;;5034285;28;20465;-71
2022/07/22 09:51:10;;;;;;;7.57;6.17;;;27.00;81.70;;;;;;5058952;28;20440;-71
2022/07/22 09:54:03;;;;;;;6.73;5.93;;;27.10;82.50;;;;;;5022081;28;20219;-71
2022/07/22 09:56:31;;;;;;;7.00;6.30;;;27.00;80.20;;;;;;5040383;28;20500;-71
2022/07/22 09:58:57;;;;;;;7.00;6.37;;;27.10;80.20;;;;;;5030232;28;20594;-71
2022/07/22 10:01:29;;;;;;;7.80;6.43;;;27.20;80.10;;;;;;5030974;28;20308;-71
2022/07/22 10:03:55;;;;;;;7.97;7.20;;;27.30;79.80;;;;;;5028549;28;20532;-70
2022/07/22 10:06:22;;;;;;;8.90;6.77;;;27.30;79.80;;;;;;5033477;28;20233;-70
2022/07/22 10:08:51;;;;;;;7.53;6.83;;;27.40;78.90;;;;;;5033902;28;20491;-71
2022/07/22 10:11:17;;;;;;;6.30;5.77;;;27.50;79.10;;;;;;5034425;28;20448;-71
2022/07/22 10:13:44;;;;;;;6.72;6.13;;;27.60;79.00;;;;;;5034543;28;20634;-71
2022/07/22 10:16:12;;;;;;;6.57;5.97;;;27.80;78.70;;;;;;5051102;28;20215;-70
2022/07/22 10:18:38;;;;;;;7.35;6.03;;;27.90;78.70;;;;;;5036454;28;20258;-71
2022/07/22 10:21:09;;;;;;;7.00;6.33;;;27.90;78.30;;;;;;5046731;28;20714;-71
2022/07/22 10:23:35;;;;;;;5.90;5.37;;;28.10;78.30;;;;;;5046603;28;20220;-71
2022/07/22 10:26:03;;;;;;;6.57;5.97;;;28.10;77.70;;;;;;5033219;28;20490;-71
2022/07/22 10:28:37;;;;;;;6.90;6.20;;;28.10;78.10;;;;;;5035534;28;20245;-71
2022/07/22 10:31:20;;;;;;;7.97;6.22;;;28.30;77.30;;;;;;5022842;28;20585;-71
2022/07/22 10:33:49;;;;;;;7.57;6.85;;;28.40;76.70;;;;;;5049444;28;20232;-71
2022/07/22 10:36:31;;;;;;;6.40;5.80;;;28.50;76.80;;;;;;5021736;28;20230;-71
2022/07/22 10:39:03;;;;;;;11.27;8.48;;;28.60;76.40;;;;;;5026001;28;20788;-70
2022/07/22 10:41:47;;;;;;;7.30;6.03;;;28.50;76.10;;;;;;5039765;28;20236;-72
2022/07/22 10:44:13;;;;;;;8.13;7.32;;;28.50;75.20;;;;;;5055068;28;20606;-72
2022/07/22 10:47:01;;;;;;;7.13;6.53;;;28.40;75.50;;;;;;5061148;28;20231;-71
2022/07/22 10:49:26;;;;;;;7.43;6.78;;;28.50;75.10;;;;;;5048085;28;20243;-71
2022/07/22 10:52:11;;;;;;;8.27;7.00;;;28.70;74.80;;;;;;5026615;28;20237;-71
2022/07/22 10:55:14;;;;;;;6.53;6.03;;;28.80;74.50;;;;;;5044262;28;20784;-72
2022/07/22 10:57:40;;;;;;;6.63;6.07;;;28.90;74.60;;;;;;5026305;28;20266;-71
2022/07/22 11:00:06;;;;;;;6.97;6.32;;;28.90;73.10;;;;;;5036961;28;20234;-71
2022/07/22 11:02:35;;;;;;;9.20;6.28;;;28.90;73.50;;;;;;5040630;28;20613;-71
2022/07/22 11:05:02;;;;;;;6.25;5.72;;;29.00;72.90;;;;;;5038967;28;20305;-70
2022/07/22 11:07:29;;;;;;;6.85;6.28;;;29.00;72.60;;;;;;5048800;28;20235;-71
2022/07/22 11:10:12;;;;;;;6.43;5.93;;;29.20;71.40;;;;;;5044912;28;20246;-72
2022/07/22 11:12:38;;;;;;;6.15;5.63;;;29.50;70.90;;;;;;5026361;28;20225;-71
2022/07/22 11:15:07;;;;;;;6.50;6.00;;;29.70;70.30;;;;;;5042189;28;20229;-71
2022/07/22 11:17:34;;;;;;;6.35;5.85;;;29.80;70.50;;;;;;5023993;28;20293;-71
2022/07/22 11:20:04;;;;;;;6.70;6.20;;;29.90;70.30;;;;;;5032388;28;20226;-71
2022/07/22 11:22:30;;;;;;;6.35;5.80;;;29.80;69.60;;;;;;5032838;28;20323;-71
2022/07/22 11:24:57;;;;;;;6.95;6.30;;;29.70;70.00;;;;;;5038339;28;20238;-71
2022/07/22 11:27:23;;;;;;;7.05;6.45;;;29.70;69.60;;;;;;5031242;28;20746;-71
2022/07/22 11:29:52;;;;;;;6.80;5.95;;;29.70;69.40;;;;;;5021281;28;20268;-71
2022/07/22 11:32:24;;;;;;;6.95;6.25;;;29.80;69.50;;;;;;5036779;28;20327;-72
2022/07/22 11:34:49;;;;;;;7.03;6.43;;;29.80;68.50;;;;;;5044014;28;20234;-71
2022/07/22 11:37:17;;;;;;;6.85;5.93;;;29.70;67.40;;;;;;5060852;28;20773;-71
2022/07/22 11:39:43;;;;;;;7.53;6.80;;;29.80;68.40;;;;;;5062674;28;20259;-71
2022/07/22 11:42:08;;;;;;;6.78;6.18;;;29.90;68.20;;;;;;5042108;28;20311;-71
2022/07/22 11:44:36;;;;;;;6.43;6.03;;;30.00;68.70;;;;;;5034286;28;20236;-71
2022/07/22 11:47:03;;;;;;;5.57;5.15;;;30.20;67.40;;;;;;5037475;28;20228;-71
2022/07/22 11:49:35;;;;;;;6.25;5.75;;;30.40;67.00;;;;;;5021912;28;20229;-71
2022/07/22 11:52:11;;;;;;;6.93;6.30;;;30.40;66.70;;;;;;5059783;28;20232;-71
2022/07/22 11:54:39;;;;;;;7.22;6.55;;;30.30;66.00;;;;;;5054757;28;20223;-71
2022/07/22 11:57:05;;;;;;;7.13;6.53;;;30.30;66.50;;;;;;5063771;28;20231;-71
2022/07/22 11:59:32;;;;;;;6.65;6.05;;;30.50;65.90;;;;;;5062386;28;20225;-71
2022/07/22 12:01:58;;;;;;;6.68;6.13;;;30.50;65.70;;;;;;5028793;28;20733;-72
2022/07/22 12:04:26;;;;;;;7.07;6.57;;;30.40;65.00;;;;;;5058763;28;20243;-71
2022/07/22 12:06:56;;;;;;;6.18;5.63;;;30.20;64.60;;;;;;5042144;28;20262;-71
2022/07/22 12:09:30;;;;;;;6.70;6.20;;;30.20;65.40;;;;;;5027259;28;20735;-71
2022/07/22 12:11:57;;;;;;;6.68;6.07;;;30.30;65.30;;;;;;5014743;28;20232;-70
2022/07/22 12:14:26;;;;;;;7.55;6.95;;;30.50;65.80;;;;;;5039983;28;20264;-71
2022/07/22 12:17:04;;;;;;;8.30;7.60;;;30.50;65.40;;;;;;5044519;28;20233;-71
2022/07/22 12:19:32;;;;;;;6.75;6.25;;;30.60;65.00;;;;;;5038551;28;20601;-71
2022/07/22 12:22:02;;;;;;;8.00;7.20;;;30.60;64.30;;;;;;5017489;28;20249;-71
2022/07/22 12:24:41;;;;;;;7.22;6.55;;;30.70;64.20;;;;;;5026583;28;20216;-71
2022/07/22 12:27:14;;;;;;;7.68;6.40;;;30.70;63.50;;;;;;5045333;28;20235;-72
2022/07/22 12:29:39;;;;;;;7.70;6.65;;;30.70;63.10;;;;;;5039133;28;20717;-71
2022/07/22 12:32:10;;;;;;;7.22;6.53;;;30.70;63.40;;;;;;5037233;28;20240;-71
2022/07/22 12:34:44;;;;;;;7.30;6.75;;;30.80;63.30;;;;;;5045784;28;20283;-71
2022/07/22 12:37:23;;;;;;;7.63;6.90;;;30.90;63.90;;;;;;5046509;28;20241;-71
2022/07/22 12:40:05;;;;;;;7.85;6.20;;;31.00;63.40;;;;;;5042267;28;20226;-71
2022/07/22 12:43:02;;;;;;;6.40;5.90;;;31.10;62.70;;;;;;5036753;28;20286;-71
2022/07/22 12:45:33;;;;;;;11.23;8.02;;;31.10;63.10;;;;;;5033677;28;20233;-72
2022/07/22 12:48:03;;;;;;;7.75;7.15;;;31.20;62.90;;;;;;5045673;28;20230;-71
2022/07/22 12:50:29;;;;;;;6.75;6.25;;;31.20;62.50;;;;;;5041257;28;20305;-71
2022/07/22 12:53:05;;;;;;;7.65;6.82;;;31.10;63.20;;;;;;5024776;28;20696;-71
2022/07/22 12:56:02;;;;;;;7.88;7.20;;;31.10;63.50;;;;;;5048432;28;20256;-71